WetterOnline ( https://www.wetteronline.at )

Wetter aktuell Lüchow

Aktuelles Wetter: Seehausen (23m)

6-stündlich | Neueste Meldungen
Ortszeit Temperatur Wetter
So, 21.07. 20:00 20.6° C leichter Regen
So, 21.07. 14:00 31.0° C leicht bewölkt
So, 21.07. 8:00 21.4° C wolkenlos
So, 21.07. 2:00 19.8° C leicht bewölkt
Sa, 20.07. 20:00 27.3° C wolkenlos
Sa, 20.07. 14:00 29.2° C wolkig
Sa, 20.07. 8:00 19.0° C bewölkt
Sa, 20.07. 2:00 15.6° C wolkig
Ortszeit Temperatur Wetter
So, 21.07. 21:30 20.3° C bewölkt
So, 21.07. 21:20 20.3° C leichter Regen
So, 21.07. 21:10 20.3° C bedeckt
So, 21.07. 21:00 20.5° C bedeckt
So, 21.07. 20:50 20.5° C bedeckt
So, 21.07. 20:40 20.6° C bedeckt
So, 21.07. 20:30 20.6° C leichter Regen
So, 21.07. 20:00 20.6° C leichter Regen
So, 21.07. 19:30 20.6° C Regen
So, 21.07. 19:00 21.1° C leichter Regen
So, 21.07. 18:30 -° C wolkig
Ortszeit Relative Feuchte Sichtweite
So, 21.07. 20:00 95% 28 km
So, 21.07. 14:00 37% 55 km
So, 21.07. 8:00 65% 45 km
So, 21.07. 2:00 73% 40 km
Sa, 20.07. 20:00 49% 55 km
Sa, 20.07. 14:00 40% 40 km
Sa, 20.07. 8:00 80% 40 km
Sa, 20.07. 2:00 93% 35 km
Ortszeit Relative Feuchte Sichtweite
So, 21.07. 21:30 95% 26 km
So, 21.07. 21:20 95% -
So, 21.07. 21:10 96% -
So, 21.07. 21:00 95% 26 km
So, 21.07. 20:50 95% -
So, 21.07. 20:40 95% -
So, 21.07. 20:30 95% 19 km
So, 21.07. 20:00 95% 28 km
So, 21.07. 19:30 94% 8 km
So, 21.07. 19:00 88% 16 km
So, 21.07. 18:30 - 35 km
Ortszeit Niederschlagsmenge Niederschlagsart
So, 21.07. 20:00 3 l/m2 in 12 Std. Regen
So, 21.07. 14:00 0.0 l/m2 in 6 Std. -
So, 21.07. 8:00 0.0 l/m2 in 12 Std. -
So, 21.07. 2:00 0.0 l/m2 in 6 Std. -
Sa, 20.07. 20:00 0.0 l/m2 in 12 Std. -
Sa, 20.07. 14:00 0.0 l/m2 in 6 Std. -
Sa, 20.07. 8:00 0.0 l/m2 in 12 Std. -
Sa, 20.07. 2:00 0.0 l/m2 in 6 Std. -
Ortszeit Niederschlagsmenge Niederschlagsart
So, 21.07. 21:30 <0.05 l/m2 in 30 Min Schneeregen
So, 21.07. 21:20 keine Meldung -
So, 21.07. 21:10 keine Meldung -
So, 21.07. 21:00 0.2 l/m2 in 1 Std. Regen
So, 21.07. 20:50 keine Meldung -
So, 21.07. 20:40 keine Meldung -
So, 21.07. 20:30 0.2 l/m2 in 30 Min -
So, 21.07. 20:00 3.0 l/m2 in 1 Std. Regen
So, 21.07. 19:30 2.3 l/m2 in 30 Min -
So, 21.07. 19:00 0.1 l/m2 in 1 Std. Regen
So, 21.07. 18:30 0.0 l/m2 in 30 Min -
Ortszeit Stärke Spitze Richtung
km/h Bft. km/h Grad Sektor
So, 21.07. 20:00 13 3 69 250° W
So, 21.07. 14:00 13 3 30 130° SO
So, 21.07. 8:00 11 2 14 140° SO
So, 21.07. 2:00 7 2 18 120° SO
Sa, 20.07. 20:00 11 2 25 70° O
Sa, 20.07. 14:00 9 2 28 110° O
Sa, 20.07. 8:00 4 1 11 90° O
Sa, 20.07. 2:00 4 1 14 70° O
Ortszeit Stärke Spitze Richtung
km/h Bft. km/h Grad Sektor
So, 21.07. 21:30 9 2 13 30° NO
So, 21.07. 21:20 9 2 - 30° NO
So, 21.07. 21:10 7 2 - 40° NO
So, 21.07. 21:00 6 1 11 310° NW
So, 21.07. 20:50 6 1 - 310° NW
So, 21.07. 20:40 4 1 - 340° N
So, 21.07. 20:30 4 1 11 340° N
So, 21.07. 20:00 13 3 48 250° W
So, 21.07. 19:30 22 4 47 240° SW
So, 21.07. 19:00 32 5 68 240° SW
So, 21.07. 18:30 40 6 68 240° SW
Ortszeit Untergrenze Bedeckung Gattung
total tief tief mittel hoch
So, 21.07. 20:00 3300 m 7/8 7/8 - - -
So, 21.07. 14:00 8700 m 6/8 0/8 - - -
So, 21.07. 8:00 - 0/8 0/8 - - -
So, 21.07. 2:00 2100 m 3/8 3/8 - - -
Sa, 20.07. 20:00 - 0/8 0/8 - - -
Sa, 20.07. 14:00 1800 m 7/8 1/8 - - -
Sa, 20.07. 8:00 1800 m 8/8 5/8 - - -
Sa, 20.07. 2:00 7200 m 8/8 0/8 - - -
Ortszeit Bedeckungsgrad in Achtel und Wolkenuntergrenze
So, 21.07. 21:30 4(2100m) 4(2700m) 8(3600m)
So, 21.07. 21:20 4(2100m) 4(2700m) 8(3600m)
So, 21.07. 21:10 8
So, 21.07. 21:00 8(3600m)
So, 21.07. 20:50 8(3600m)
So, 21.07. 20:40 8
So, 21.07. 20:30 2(2400m) 5(3000m) 8(3600m)
So, 21.07. 20:00 6(3300m) 7(3900m)
So, 21.07. 19:30 8(3300m)
So, 21.07. 19:00 2(2400m) 7(4200m) 8(5700m)
So, 21.07. 18:30 1(1170m) 8(6300m) 8(7800m)
Ortszeit Luftdruck NN (hPa) Tendenz (hPa in 3 Std.)
So, 21.07. 20:00 1008 + 1,7
So, 21.07. 14:00 1007 - 0,8
So, 21.07. 8:00 1008 0,0
So, 21.07. 2:00 1009 - 0,1
Sa, 20.07. 20:00 1009 - 1,1
Sa, 20.07. 14:00 1012 - 1,4
Sa, 20.07. 8:00 1015 - 1,0
Sa, 20.07. 2:00 1017 - 0,5
Ortszeit Luftdruck NN (hPa) Tendenz (hPa in 3 Std.)
So, 21.07. 21:30 1008 - 0,6
So, 21.07. 21:20 1008 keine Meldung
So, 21.07. 21:10 1008 keine Meldung
So, 21.07. 21:00 1008 + 1,1
So, 21.07. 20:50 1008 keine Meldung
So, 21.07. 20:40 1008 keine Meldung
So, 21.07. 20:30 1008 + 1,7
So, 21.07. 20:00 1008 + 1,7
So, 21.07. 19:30 1009 + 2,1
So, 21.07. 19:00 1009 + 1,8
So, 21.07. 18:30 1008 + 1,4
Ortszeit Schneehöhe (cm)
So, 21.07. 20:00 0
So, 21.07. 14:00 0
So, 21.07. 8:00 0
So, 21.07. 2:00 0
Sa, 20.07. 20:00 0
Sa, 20.07. 14:00 0
Sa, 20.07. 8:00 0
Sa, 20.07. 2:00 0
Ortszeit Schneehöhe (cm)
So, 21.07. 21:30 0
So, 21.07. 21:20 0
So, 21.07. 21:10 -
So, 21.07. 21:00 0
So, 21.07. 20:50 0
So, 21.07. 20:40 -
So, 21.07. 20:30 0
So, 21.07. 20:00 0
So, 21.07. 19:30 0
So, 21.07. 19:00 0
So, 21.07. 18:30 0
Link zu dieser Seite / Seite empfehlen

Das Wetter in ...